sensor_id;sensor_type;location;lat;lon;timestamp;temperature;humidity
21255;DHT22;10785;50.674;17.954;2023-04-01T00:16:49;9.40;99.90
21255;DHT22;10785;50.674;17.954;2023-04-01T00:19:18;9.40;99.90
21255;DHT22;10785;50.674;17.954;2023-04-01T00:21:46;9.40;99.90
21255;DHT22;10785;50.674;17.954;2023-04-01T00:24:15;9.40;99.90
21255;DHT22;10785;50.674;17.954;2023-04-01T00:26:44;9.50;99.90
21255;DHT22;10785;50.674;17.954;2023-04-01T00:29:14;9.50;99.90
21255;DHT22;10785;50.674;17.954;2023-04-01T00:31:43;9.50;99.90
21255;DHT22;10785;50.674;17.954;2023-04-01T00:34:20;9.50;99.90
21255;DHT22;10785;50.674;17.954;2023-04-01T00:36:48;9.50;99.90
21255;DHT22;10785;50.674;17.954;2023-04-01T00:39:17;9.50;99.90
21255;DHT22;10785;50.674;17.954;2023-04-01T00:41:46;9.50;99.90
21255;DHT22;10785;50.674;17.954;2023-04-01T00:44:17;9.50;99.90
21255;DHT22;10785;50.674;17.954;2023-04-01T00:46:46;9.40;99.90
21255;DHT22;10785;50.674;17.954;2023-04-01T01:38:16;9.20;99.90
21255;DHT22;10785;50.674;17.954;2023-04-01T01:40:55;9.10;99.90
21255;DHT22;10785;50.674;17.954;2023-04-01T01:43:29;9.10;99.90
21255;DHT22;10785;50.674;17.954;2023-04-01T01:46:01;9.10;99.90
21255;DHT22;10785;50.674;17.954;2023-04-01T01:48:32;9.10;99.90
21255;DHT22;10785;50.674;17.954;2023-04-01T01:51:03;9.00;99.90
21255;DHT22;10785;50.674;17.954;2023-04-01T01:53:33;9.00;99.90
21255;DHT22;10785;50.674;17.954;2023-04-01T01:56:02;9.10;99.90
21255;DHT22;10785;50.674;17.954;2023-04-01T01:58:37;9.10;99.90
21255;DHT22;10785;50.674;17.954;2023-04-01T02:01:13;9.00;99.90
21255;DHT22;10785;50.674;17.954;2023-04-01T02:03:44;9.00;99.90
21255;DHT22;10785;50.674;17.954;2023-04-01T02:06:15;9.10;99.90
21255;DHT22;10785;50.674;17.954;2023-04-01T02:08:50;9.10;99.90
21255;DHT22;10785;50.674;17.954;2023-04-01T02:11:26;9.10;99.90
21255;DHT22;10785;50.674;17.954;2023-04-01T02:13:58;9.20;99.90
21255;DHT22;10785;50.674;17.954;2023-04-01T02:16:51;9.10;99.90
21255;DHT22;10785;50.674;17.954;2023-04-01T02:19:24;9.20;99.90
21255;DHT22;10785;50.674;17.954;2023-04-01T02:21:57;9.20;99.90
21255;DHT22;10785;50.674;17.954;2023-04-01T02:24:31;9.20;99.90
21255;DHT22;10785;50.674;17.954;2023-04-01T02:27:00;9.20;99.90
21255;DHT22;10785;50.674;17.954;2023-04-01T02:29:30;9.20;99.90
21255;DHT22;10785;50.674;17.954;2023-04-01T02:32:00;9.20;99.90
21255;DHT22;10785;50.674;17.954;2023-04-01T02:34:29;9.20;99.90
21255;DHT22;10785;50.674;17.954;2023-04-01T02:36:58;9.20;99.90
21255;DHT22;10785;50.674;17.954;2023-04-01T02:39:29;9.20;99.90
21255;DHT22;10785;50.674;17.954;2023-04-01T02:41:58;9.20;99.90
21255;DHT22;10785;50.674;17.954;2023-04-01T02:44:26;9.20;99.90
21255;DHT22;10785;50.674;17.954;2023-04-01T02:46:55;9.30;99.90
21255;DHT22;10785;50.674;17.954;2023-04-01T02:49:27;9.30;99.90
21255;DHT22;10785;50.674;17.954;2023-04-01T02:51:55;9.30;99.90
21255;DHT22;10785;50.674;17.954;2023-04-01T02:54:24;9.30;99.90
21255;DHT22;10785;50.674;17.954;2023-04-01T02:56:54;9.40;99.90
21255;DHT22;10785;50.674;17.954;2023-04-01T02:59:23;9.40;99.90
21255;DHT22;10785;50.674;17.954;2023-04-01T03:01:52;9.40;99.90
21255;DHT22;10785;50.674;17.954;2023-04-01T03:04:20;9.40;99.90
21255;DHT22;10785;50.674;17.954;2023-04-01T03:06:49;9.40;99.90
21255;DHT22;10785;50.674;17.954;2023-04-01T03:09:18;9.40;99.90
21255;DHT22;10785;50.674;17.954;2023-04-01T03:11:47;9.50;99.90
21255;DHT22;10785;50.674;17.954;2023-04-01T03:14:17;9.50;99.90
21255;DHT22;10785;50.674;17.954;2023-04-01T03:16:45;9.40;99.90
21255;DHT22;10785;50.674;17.954;2023-04-01T03:19:14;9.40;99.90
21255;DHT22;10785;50.674;17.954;2023-04-01T03:21:43;9.30;99.90
21255;DHT22;10785;50.674;17.954;2023-04-01T03:24:12;9.20;99.90
21255;DHT22;10785;50.674;17.954;2023-04-01T03:26:40;9.20;99.90
21255;DHT22;10785;50.674;17.954;2023-04-01T03:29:09;9.20;99.90
21255;DHT22;10785;50.674;17.954;2023-04-01T03:31:39;9.10;99.90
21255;DHT22;10785;50.674;17.954;2023-04-01T03:34:08;9.20;99.90
21255;DHT22;10785;50.674;17.954;2023-04-01T03:36:37;9.20;99.90
21255;DHT22;10785;50.674;17.954;2023-04-01T03:39:06;9.10;99.90
21255;DHT22;10785;50.674;17.954;2023-04-01T03:41:40;9.20;99.90
21255;DHT22;10785;50.674;17.954;2023-04-01T03:44:09;9.20;99.90
21255;DHT22;10785;50.674;17.954;2023-04-01T03:46:40;9.20;99.90
21255;DHT22;10785;50.674;17.954;2023-04-01T03:49:09;9.20;99.90
21255;DHT22;10785;50.674;17.954;2023-04-01T03:51:39;9.20;99.90
21255;DHT22;10785;50.674;17.954;2023-04-01T03:54:08;9.20;99.90
21255;DHT22;10785;50.674;17.954;2023-04-01T03:56:37;9.20;99.90
21255;DHT22;10785;50.674;17.954;2023-04-01T03:59:07;9.20;99.90
21255;DHT22;10785;50.674;17.954;2023-04-01T04:01:36;9.20;99.90
21255;DHT22;10785;50.674;17.954;2023-04-01T04:04:06;9.20;99.90
21255;DHT22;10785;50.674;17.954;2023-04-01T04:06:34;9.20;99.90
21255;DHT22;10785;50.674;17.954;2023-04-01T04:09:03;9.20;99.90
21255;DHT22;10785;50.674;17.954;2023-04-01T04:11:32;9.20;99.90
21255;DHT22;10785;50.674;17.954;2023-04-01T04:14:02;9.20;99.90
21255;DHT22;10785;50.674;17.954;2023-04-01T04:16:34;9.20;99.90
21255;DHT22;10785;50.674;17.954;2023-04-01T04:19:06;9.20;99.90
21255;DHT22;10785;50.674;17.954;2023-04-01T04:21:34;9.20;99.90
21255;DHT22;10785;50.674;17.954;2023-04-01T04:24:04;9.20;99.90
21255;DHT22;10785;50.674;17.954;2023-04-01T04:26:52;9.20;99.90
21255;DHT22;10785;50.674;17.954;2023-04-01T04:29:21;9.20;99.90
21255;DHT22;10785;50.674;17.954;2023-04-01T04:31:51;9.20;99.90
21255;DHT22;10785;50.674;17.954;2023-04-01T04:34:21;9.20;99.90
21255;DHT22;10785;50.674;17.954;2023-04-01T04:36:49;9.20;99.90
21255;DHT22;10785;50.674;17.954;2023-04-01T04:39:19;9.20;99.90
21255;DHT22;10785;50.674;17.954;2023-04-01T04:41:49;9.20;99.90
21255;DHT22;10785;50.674;17.954;2023-04-01T04:44:18;9.20;99.90
21255;DHT22;10785;50.674;17.954;2023-04-01T04:46:47;9.20;99.90
21255;DHT22;10785;50.674;17.954;2023-04-01T04:49:16;9.20;99.90
21255;DHT22;10785;50.674;17.954;2023-04-01T04:51:46;9.20;99.90
21255;DHT22;10785;50.674;17.954;2023-04-01T04:54:17;9.20;99.90
21255;DHT22;10785;50.674;17.954;2023-04-01T04:56:57;9.20;99.90
21255;DHT22;10785;50.674;17.954;2023-04-01T04:59:30;9.20;99.90
21255;DHT22;10785;50.674;17.954;2023-04-01T05:02:05;9.20;99.90
21255;DHT22;10785;50.674;17.954;2023-04-01T05:04:35;9.20;99.90
21255;DHT22;10785;50.674;17.954;2023-04-01T05:07:07;9.20;99.90
21255;DHT22;10785;50.674;17.954;2023-04-01T05:09:36;9.20;99.90
21255;DHT22;10785;50.674;17.954;2023-04-01T05:12:04;9.20;99.90
21255;DHT22;10785;50.674;17.954;2023-04-01T05:14:53;9.30;99.90
21255;DHT22;10785;50.674;17.954;2023-04-01T05:17:22;9.30;99.90
21255;DHT22;10785;50.674;17.954;2023-04-01T05:19:51;9.40;99.90
21255;DHT22;10785;50.674;17.954;2023-04-01T05:22:21;9.40;99.90
21255;DHT22;10785;50.674;17.954;2023-04-01T05:24:50;9.40;99.90
21255;DHT22;10785;50.674;17.954;2023-04-01T05:27:20;9.40;99.90
21255;DHT22;10785;50.674;17.954;2023-04-01T05:29:49;9.40;99.90
21255;DHT22;10785;50.674;17.954;2023-04-01T05:32:38;9.30;99.90
21255;DHT22;10785;50.674;17.954;2023-04-01T05:35:08;9.30;99.90
21255;DHT22;10785;50.674;17.954;2023-04-01T05:37:38;9.30;99.90
21255;DHT22;10785;50.674;17.954;2023-04-01T05:40:08;9.30;99.90
21255;DHT22;10785;50.674;17.954;2023-04-01T05:42:37;9.20;99.90
21255;DHT22;10785;50.674;17.954;2023-04-01T05:45:06;9.30;99.90
21255;DHT22;10785;50.674;17.954;2023-04-01T05:48:05;9.20;99.90
21255;DHT22;10785;50.674;17.954;2023-04-01T05:50:40;9.20;99.90
21255;DHT22;10785;50.674;17.954;2023-04-01T05:53:12;9.10;99.90
21255;DHT22;10785;50.674;17.954;2023-04-01T05:55:43;9.10;99.90
21255;DHT22;10785;50.674;17.954;2023-04-01T05:58:13;9.00;99.90
21255;DHT22;10785;50.674;17.954;2023-04-01T06:00:45;9.00;99.90
21255;DHT22;10785;50.674;17.954;2023-04-01T06:03:16;9.00;99.90
21255;DHT22;10785;50.674;17.954;2023-04-01T06:05:45;9.00;99.90
21255;DHT22;10785;50.674;17.954;2023-04-01T06:08:17;9.00;99.90
21255;DHT22;10785;50.674;17.954;2023-04-01T06:10:55;8.90;99.90
21255;DHT22;10785;50.674;17.954;2023-04-01T06:13:38;8.90;99.90
21255;DHT22;10785;50.674;17.954;2023-04-01T06:16:18;8.90;99.90
21255;DHT22;10785;50.674;17.954;2023-04-01T06:19:11;9.00;99.90
21255;DHT22;10785;50.674;17.954;2023-04-01T06:25:21;9.00;99.90
21255;DHT22;10785;50.674;17.954;2023-04-01T06:28:05;9.00;99.90
21255;DHT22;10785;50.674;17.954;2023-04-01T06:30:40;9.00;99.90
21255;DHT22;10785;50.674;17.954;2023-04-01T06:33:25;8.90;99.90
21255;DHT22;10785;50.674;17.954;2023-04-01T06:36:24;8.90;99.90
21255;DHT22;10785;50.674;17.954;2023-04-01T06:39:23;8.90;99.90
21255;DHT22;10785;50.674;17.954;2023-04-01T06:45:13;8.90;99.90
21255;DHT22;10785;50.674;17.954;2023-04-01T06:48:14;8.90;99.90
21255;DHT22;10785;50.674;17.954;2023-04-01T06:51:11;8.90;99.90
21255;DHT22;10785;50.674;17.954;2023-04-01T06:54:08;8.90;99.90
21255;DHT22;10785;50.674;17.954;2023-04-01T06:57:16;8.90;99.90
21255;DHT22;10785;50.674;17.954;2023-04-01T06:59:47;8.90;99.90
21255;DHT22;10785;50.674;17.954;2023-04-01T07:02:24;8.90;99.90
21255;DHT22;10785;50.674;17.954;2023-04-01T07:04:55;8.90;99.90
21255;DHT22;10785;50.674;17.954;2023-04-01T07:07:30;8.90;99.90
21255;DHT22;10785;50.674;17.954;2023-04-01T07:10:09;8.90;99.90
21255;DHT22;10785;50.674;17.954;2023-04-01T07:29:20;9.30;99.90
21255;DHT22;10785;50.674;17.954;2023-04-01T07:32:12;9.30;99.90
21255;DHT22;10785;50.674;17.954;2023-04-01T07:34:54;9.20;99.90
21255;DHT22;10785;50.674;17.954;2023-04-01T07:37:28;9.20;99.90
21255;DHT22;10785;50.674;17.954;2023-04-01T07:40:08;9.30;99.90
21255;DHT22;10785;50.674;17.954;2023-04-01T07:42:53;9.30;99.90
21255;DHT22;10785;50.674;17.954;2023-04-01T07:45:28;9.30;99.90
21255;DHT22;10785;50.674;17.954;2023-04-01T07:48:09;9.30;99.90
21255;DHT22;10785;50.674;17.954;2023-04-01T07:50:46;9.30;99.90
21255;DHT22;10785;50.674;17.954;2023-04-01T07:53:23;9.30;99.90
21255;DHT22;10785;50.674;17.954;2023-04-01T07:56:04;9.40;99.90
21255;DHT22;10785;50.674;17.954;2023-04-01T07:58:44;9.50;99.90
21255;DHT22;10785;50.674;17.954;2023-04-01T08:01:40;9.70;99.90
21255;DHT22;10785;50.674;17.954;2023-04-01T08:04:32;9.90;99.90
21255;DHT22;10785;50.674;17.954;2023-04-01T08:07:09;10.00;99.90
21255;DHT22;10785;50.674;17.954;2023-04-01T08:09:52;10.00;99.90
21255;DHT22;10785;50.674;17.954;2023-04-01T08:12:50;9.90;99.90
21255;DHT22;10785;50.674;17.954;2023-04-01T08:15:46;10.00;99.90
21255;DHT22;10785;50.674;17.954;2023-04-01T08:18:45;10.10;99.90
21255;DHT22;10785;50.674;17.954;2023-04-01T08:21:21;10.10;99.90
21255;DHT22;10785;50.674;17.954;2023-04-01T08:23:54;10.10;99.90
21255;DHT22;10785;50.674;17.954;2023-04-01T08:26:30;10.10;99.90
21255;DHT22;10785;50.674;17.954;2023-04-01T08:29:05;10.10;99.90
21255;DHT22;10785;50.674;17.954;2023-04-01T08:31:38;9.90;99.90
21255;DHT22;10785;50.674;17.954;2023-04-01T08:34:16;9.90;99.90
21255;DHT22;10785;50.674;17.954;2023-04-01T08:36:51;9.90;99.90
21255;DHT22;10785;50.674;17.954;2023-04-01T08:39:25;9.80;99.90
21255;DHT22;10785;50.674;17.954;2023-04-01T08:48:48;9.80;99.90
21255;DHT22;10785;50.674;17.954;2023-04-01T08:52:00;9.90;99.90
21255;DHT22;10785;50.674;17.954;2023-04-01T08:58:04;10.00;99.90
21255;DHT22;10785;50.674;17.954;2023-04-01T09:01:14;10.10;99.90
21255;DHT22;10785;50.674;17.954;2023-04-01T09:04:00;10.30;99.90
21255;DHT22;10785;50.674;17.954;2023-04-01T09:06:39;10.30;99.90
21255;DHT22;10785;50.674;17.954;2023-04-01T09:09:34;10.40;99.90
21255;DHT22;10785;50.674;17.954;2023-04-01T09:12:38;10.40;99.90
21255;DHT22;10785;50.674;17.954;2023-04-01T09:21:56;10.80;99.90
21255;DHT22;10785;50.674;17.954;2023-04-01T09:24:53;10.70;99.90
21255;DHT22;10785;50.674;17.954;2023-04-01T09:27:28;10.60;99.90
21255;DHT22;10785;50.674;17.954;2023-04-01T09:30:24;10.70;99.90
21255;DHT22;10785;50.674;17.954;2023-04-01T09:33:34;10.70;99.90
21255;DHT22;10785;50.674;17.954;2023-04-01T09:36:18;10.60;99.90
21255;DHT22;10785;50.674;17.954;2023-04-01T09:39:24;10.70;99.90
21255;DHT22;10785;50.674;17.954;2023-04-01T09:42:21;10.70;99.90
21255;DHT22;10785;50.674;17.954;2023-04-01T09:45:09;11.00;99.90
21255;DHT22;10785;50.674;17.954;2023-04-01T09:47:57;11.10;99.90
21255;DHT22;10785;50.674;17.954;2023-04-01T09:50:35;11.40;99.90
21255;DHT22;10785;50.674;17.954;2023-04-01T09:53:24;11.50;99.90
21255;DHT22;10785;50.674;17.954;2023-04-01T09:56:19;11.90;99.90
21255;DHT22;10785;50.674;17.954;2023-04-01T10:09:01;12.00;99.90
21255;DHT22;10785;50.674;17.954;2023-04-01T10:15:33;12.30;99.90
21255;DHT22;10785;50.674;17.954;2023-04-01T10:18:34;12.50;99.90
21255;DHT22;10785;50.674;17.954;2023-04-01T10:21:39;12.50;99.90
21255;DHT22;10785;50.674;17.954;2023-04-01T10:24:29;12.90;99.90
21255;DHT22;10785;50.674;17.954;2023-04-01T10:27:49;13.10;99.90
21255;DHT22;10785;50.674;17.954;2023-04-01T10:30:54;12.70;99.90
21255;DHT22;10785;50.674;17.954;2023-04-01T10:36:53;12.40;99.90
21255;DHT22;10785;50.674;17.954;2023-04-01T10:40:03;12.40;99.90
21255;DHT22;10785;50.674;17.954;2023-04-01T10:43:32;12.20;99.90
21255;DHT22;10785;50.674;17.954;2023-04-01T10:46:36;12.00;99.90
21255;DHT22;10785;50.674;17.954;2023-04-01T10:49:43;11.80;99.90
21255;DHT22;10785;50.674;17.954;2023-04-01T10:52:39;11.70;99.90
21255;DHT22;10785;50.674;17.954;2023-04-01T10:55:37;11.70;99.90
21255;DHT22;10785;50.674;17.954;2023-04-01T11:02:39;11.50;99.90
21255;DHT22;10785;50.674;17.954;2023-04-01T11:15:37;11.60;99.90
21255;DHT22;10785;50.674;17.954;2023-04-01T11:21:45;12.00;99.90
21255;DHT22;10785;50.674;17.954;2023-04-01T11:24:35;11.80;99.90
21255;DHT22;10785;50.674;17.954;2023-04-01T11:27:49;11.80;99.90
21255;DHT22;10785;50.674;17.954;2023-04-01T11:30:25;12.10;99.90
21255;DHT22;10785;50.674;17.954;2023-04-01T11:33:02;12.30;99.90
21255;DHT22;10785;50.674;17.954;2023-04-01T11:36:04;12.60;99.90
21255;DHT22;10785;50.674;17.954;2023-04-01T11:38:49;12.90;99.90
21255;DHT22;10785;50.674;17.954;2023-04-01T11:41:41;12.80;99.90
21255;DHT22;10785;50.674;17.954;2023-04-01T11:44:36;12.70;99.90
21255;DHT22;10785;50.674;17.954;2023-04-01T11:47:22;12.70;99.90
21255;DHT22;10785;50.674;17.954;2023-04-01T11:50:03;12.80;99.90
21255;DHT22;10785;50.674;17.954;2023-04-01T11:53:01;12.70;99.90
21255;DHT22;10785;50.674;17.954;2023-04-01T11:55:43;12.80;99.90
21255;DHT22;10785;50.674;17.954;2023-04-01T12:01:23;12.90;99.90
21255;DHT22;10785;50.674;17.954;2023-04-01T12:07:06;13.20;99.90
21255;DHT22;10785;50.674;17.954;2023-04-01T12:09:47;13.30;99.90
21255;DHT22;10785;50.674;17.954;2023-04-01T12:12:23;13.30;99.90
21255;DHT22;10785;50.674;17.954;2023-04-01T12:15:04;13.20;99.90
21255;DHT22;10785;50.674;17.954;2023-04-01T12:17:45;13.40;99.90
21255;DHT22;10785;50.674;17.954;2023-04-01T12:20:39;13.40;99.90
21255;DHT22;10785;50.674;17.954;2023-04-01T12:23:23;13.30;99.90
21255;DHT22;10785;50.674;17.954;2023-04-01T12:29:32;12.70;99.90
21255;DHT22;10785;50.674;17.954;2023-04-01T12:32:15;12.30;99.90
21255;DHT22;10785;50.674;17.954;2023-04-01T12:35:00;11.90;99.90
21255;DHT22;10785;50.674;17.954;2023-04-01T12:37:39;11.50;99.90
21255;DHT22;10785;50.674;17.954;2023-04-01T12:40:30;11.30;99.90
21255;DHT22;10785;50.674;17.954;2023-04-01T12:43:11;11.10;99.90
21255;DHT22;10785;50.674;17.954;2023-04-01T12:45:49;11.10;99.90
21255;DHT22;10785;50.674;17.954;2023-04-01T12:48:42;11.10;99.90
21255;DHT22;10785;50.674;17.954;2023-04-01T12:57:30;11.30;99.90
21255;DHT22;10785;50.674;17.954;2023-04-01T13:00:19;11.30;99.90
21255;DHT22;10785;50.674;17.954;2023-04-01T13:03:03;11.50;99.90
21255;DHT22;10785;50.674;17.954;2023-04-01T13:05:55;11.70;99.90
21255;DHT22;10785;50.674;17.954;2023-04-01T13:08:36;11.80;99.90
21255;DHT22;10785;50.674;17.954;2023-04-01T13:11:18;11.90;99.90
21255;DHT22;10785;50.674;17.954;2023-04-01T13:14:18;12.00;99.90
21255;DHT22;10785;50.674;17.954;2023-04-01T13:17:02;11.90;99.90
21255;DHT22;10785;50.674;17.954;2023-04-01T13:19:39;12.00;99.90
21255;DHT22;10785;50.674;17.954;2023-04-01T13:22:22;12.00;99.90
21255;DHT22;10785;50.674;17.954;2023-04-01T13:24:59;11.90;99.90
21255;DHT22;10785;50.674;17.954;2023-04-01T13:27:35;11.90;99.90
21255;DHT22;10785;50.674;17.954;2023-04-01T13:30:21;11.90;99.90
21255;DHT22;10785;50.674;17.954;2023-04-01T13:32:59;11.90;99.90
21255;DHT22;10785;50.674;17.954;2023-04-01T13:35:36;11.90;99.90
21255;DHT22;10785;50.674;17.954;2023-04-01T13:38:27;12.00;99.90
21255;DHT22;10785;50.674;17.954;2023-04-01T13:41:07;12.00;99.90
21255;DHT22;10785;50.674;17.954;2023-04-01T13:43:42;12.30;99.90
21255;DHT22;10785;50.674;17.954;2023-04-01T13:46:33;12.20;99.90
21255;DHT22;10785;50.674;17.954;2023-04-01T13:49:28;12.20;99.90
21255;DHT22;10785;50.674;17.954;2023-04-01T13:52:11;12.40;99.90
21255;DHT22;10785;50.674;17.954;2023-04-01T13:58:03;12.40;99.90
21255;DHT22;10785;50.674;17.954;2023-04-01T14:00:41;12.50;99.90
21255;DHT22;10785;50.674;17.954;2023-04-01T14:03:28;12.60;99.90
21255;DHT22;10785;50.674;17.954;2023-04-01T14:06:19;12.80;99.90
21255;DHT22;10785;50.674;17.954;2023-04-01T14:11:53;13.00;99.90
21255;DHT22;10785;50.674;17.954;2023-04-01T14:14:34;12.80;99.90
21255;DHT22;10785;50.674;17.954;2023-04-01T14:17:17;12.70;99.90
21255;DHT22;10785;50.674;17.954;2023-04-01T14:22:53;12.60;99.90
21255;DHT22;10785;50.674;17.954;2023-04-01T14:25:44;12.60;99.90
21255;DHT22;10785;50.674;17.954;2023-04-01T14:28:24;12.70;99.90
21255;DHT22;10785;50.674;17.954;2023-04-01T14:34:18;12.70;99.90
21255;DHT22;10785;50.674;17.954;2023-04-01T14:36:57;12.70;99.90
21255;DHT22;10785;50.674;17.954;2023-04-01T14:40:03;12.80;99.90
21255;DHT22;10785;50.674;17.954;2023-04-01T14:48:39;12.20;99.90
21255;DHT22;10785;50.674;17.954;2023-04-01T14:51:23;12.00;99.90
21255;DHT22;10785;50.674;17.954;2023-04-01T14:54:04;11.80;99.90
21255;DHT22;10785;50.674;17.954;2023-04-01T14:56:39;11.80;99.90
21255;DHT22;10785;50.674;17.954;2023-04-01T14:59:15;11.80;99.90
21255;DHT22;10785;50.674;17.954;2023-04-01T15:01:50;11.80;99.90
21255;DHT22;10785;50.674;17.954;2023-04-01T15:04:41;11.90;99.90
21255;DHT22;10785;50.674;17.954;2023-04-01T15:07:42;11.80;99.90
21255;DHT22;10785;50.674;17.954;2023-04-01T15:10:31;11.80;99.90
21255;DHT22;10785;50.674;17.954;2023-04-01T15:13:12;11.80;99.90
21255;DHT22;10785;50.674;17.954;2023-04-01T15:15:56;11.70;99.90
21255;DHT22;10785;50.674;17.954;2023-04-01T15:18:37;11.70;99.90
21255;DHT22;10785;50.674;17.954;2023-04-01T15:21:20;11.80;99.90
21255;DHT22;10785;50.674;17.954;2023-04-01T15:24:06;11.80;99.90
21255;DHT22;10785;50.674;17.954;2023-04-01T15:29:53;11.60;99.90
21255;DHT22;10785;50.674;17.954;2023-04-01T15:32:39;11.40;99.90
21255;DHT22;10785;50.674;17.954;2023-04-01T15:35:21;11.30;99.90
21255;DHT22;10785;50.674;17.954;2023-04-01T15:37:56;11.30;99.90
21255;DHT22;10785;50.674;17.954;2023-04-01T15:40:31;11.20;99.90
21255;DHT22;10785;50.674;17.954;2023-04-01T15:43:11;11.20;99.90
21255;DHT22;10785;50.674;17.954;2023-04-01T15:45:47;11.10;99.90
21255;DHT22;10785;50.674;17.954;2023-04-01T15:48:29;11.20;99.90
21255;DHT22;10785;50.674;17.954;2023-04-01T15:51:19;11.20;99.90
21255;DHT22;10785;50.674;17.954;2023-04-01T15:56:53;11.20;99.90
21255;DHT22;10785;50.674;17.954;2023-04-01T15:59:44;11.20;99.90
21255;DHT22;10785;50.674;17.954;2023-04-01T16:02:21;11.20;99.90
21255;DHT22;10785;50.674;17.954;2023-04-01T16:04:55;11.20;99.90
21255;DHT22;10785;50.674;17.954;2023-04-01T16:07:43;11.20;99.90
21255;DHT22;10785;50.674;17.954;2023-04-01T16:10:23;11.30;99.90
21255;DHT22;10785;50.674;17.954;2023-04-01T16:13:08;11.20;99.90
21255;DHT22;10785;50.674;17.954;2023-04-01T16:15:47;11.10;99.90
21255;DHT22;10785;50.674;17.954;2023-04-01T16:18:43;11.20;99.90
21255;DHT22;10785;50.674;17.954;2023-04-01T16:21:32;11.10;99.90
21255;DHT22;10785;50.674;17.954;2023-04-01T16:24:13;11.10;99.90
21255;DHT22;10785;50.674;17.954;2023-04-01T16:26:49;11.00;99.90
21255;DHT22;10785;50.674;17.954;2023-04-01T16:29:27;11.00;99.90
21255;DHT22;10785;50.674;17.954;2023-04-01T16:32:08;11.00;99.90
21255;DHT22;10785;50.674;17.954;2023-04-01T16:34:43;10.90;99.90
21255;DHT22;10785;50.674;17.954;2023-04-01T16:37:17;10.90;99.90
21255;DHT22;10785;50.674;17.954;2023-04-01T16:39:53;10.90;99.90
21255;DHT22;10785;50.674;17.954;2023-04-01T16:42:38;10.90;99.90
21255;DHT22;10785;50.674;17.954;2023-04-01T16:45:22;10.80;99.90
21255;DHT22;10785;50.674;17.954;2023-04-01T16:47:56;10.90;99.90
21255;DHT22;10785;50.674;17.954;2023-04-01T16:50:28;10.80;99.90
21255;DHT22;10785;50.674;17.954;2023-04-01T16:53:02;10.80;99.90
21255;DHT22;10785;50.674;17.954;2023-04-01T16:55:47;10.80;99.90
21255;DHT22;10785;50.674;17.954;2023-04-01T16:58:23;10.80;99.90
21255;DHT22;10785;50.674;17.954;2023-04-01T17:01:00;10.80;99.90
21255;DHT22;10785;50.674;17.954;2023-04-01T17:03:33;10.70;99.90
21255;DHT22;10785;50.674;17.954;2023-04-01T17:06:12;10.70;99.90
21255;DHT22;10785;50.674;17.954;2023-04-01T17:11:58;10.70;99.90
21255;DHT22;10785;50.674;17.954;2023-04-01T17:14:35;10.60;99.90
21255;DHT22;10785;50.674;17.954;2023-04-01T17:17:20;10.60;99.90
21255;DHT22;10785;50.674;17.954;2023-04-01T17:20:01;10.50;99.90
21255;DHT22;10785;50.674;17.954;2023-04-01T17:22:36;10.50;99.90
21255;DHT22;10785;50.674;17.954;2023-04-01T17:25:20;10.50;99.90
21255;DHT22;10785;50.674;17.954;2023-04-01T17:40:38;10.40;99.90
21255;DHT22;10785;50.674;17.954;2023-04-01T17:43:19;10.40;99.90
21255;DHT22;10785;50.674;17.954;2023-04-01T17:45:54;10.40;99.90
21255;DHT22;10785;50.674;17.954;2023-04-01T17:48:35;10.40;99.90
21255;DHT22;10785;50.674;17.954;2023-04-01T17:51:20;10.40;99.90
21255;DHT22;10785;50.674;17.954;2023-04-01T17:54:00;10.30;99.90
21255;DHT22;10785;50.674;17.954;2023-04-01T18:06:11;10.30;99.90
21255;DHT22;10785;50.674;17.954;2023-04-01T18:08:54;10.30;99.90
21255;DHT22;10785;50.674;17.954;2023-04-01T18:11:35;10.20;99.90
21255;DHT22;10785;50.674;17.954;2023-04-01T18:17:39;10.20;99.90
21255;DHT22;10785;50.674;17.954;2023-04-01T18:20:24;10.10;99.90
21255;DHT22;10785;50.674;17.954;2023-04-01T18:22:57;10.10;99.90
21255;DHT22;10785;50.674;17.954;2023-04-01T18:25:30;10.10;99.90
21255;DHT22;10785;50.674;17.954;2023-04-01T18:28:17;10.10;99.90
21255;DHT22;10785;50.674;17.954;2023-04-01T18:30:52;10.00;99.90
21255;DHT22;10785;50.674;17.954;2023-04-01T18:33:25;10.00;99.90
21255;DHT22;10785;50.674;17.954;2023-04-01T18:36:08;9.90;99.90
21255;DHT22;10785;50.674;17.954;2023-04-01T18:38:44;9.90;99.90
21255;DHT22;10785;50.674;17.954;2023-04-01T18:41:15;9.90;99.90
21255;DHT22;10785;50.674;17.954;2023-04-01T18:43:54;9.90;99.90
21255;DHT22;10785;50.674;17.954;2023-04-01T18:46:39;9.90;99.90
21255;DHT22;10785;50.674;17.954;2023-04-01T18:49:16;9.90;99.90
21255;DHT22;10785;50.674;17.954;2023-04-01T18:51:52;9.80;99.90
21255;DHT22;10785;50.674;17.954;2023-04-01T18:54:30;9.80;99.90
21255;DHT22;10785;50.674;17.954;2023-04-01T18:57:02;9.80;99.90
21255;DHT22;10785;50.674;17.954;2023-04-01T18:59:36;9.80;99.90
21255;DHT22;10785;50.674;17.954;2023-04-01T19:02:17;9.90;99.90
21255;DHT22;10785;50.674;17.954;2023-04-01T19:04:52;9.80;99.90
21255;DHT22;10785;50.674;17.954;2023-04-01T19:07:43;9.80;99.90
21255;DHT22;10785;50.674;17.954;2023-04-01T19:10:17;9.90;99.90
21255;DHT22;10785;50.674;17.954;2023-04-01T19:12:59;9.90;99.90
21255;DHT22;10785;50.674;17.954;2023-04-01T19:15:34;9.90;99.90
21255;DHT22;10785;50.674;17.954;2023-04-01T19:21:16;9.90;99.90
21255;DHT22;10785;50.674;17.954;2023-04-01T19:26:49;9.90;99.90
21255;DHT22;10785;50.674;17.954;2023-04-01T19:29:31;9.80;99.90
21255;DHT22;10785;50.674;17.954;2023-04-01T19:32:14;9.80;99.90
21255;DHT22;10785;50.674;17.954;2023-04-01T19:34:52;9.70;99.90
21255;DHT22;10785;50.674;17.954;2023-04-01T19:37:31;9.70;99.90
21255;DHT22;10785;50.674;17.954;2023-04-01T19:40:15;9.70;99.90
21255;DHT22;10785;50.674;17.954;2023-04-01T19:42:54;9.70;99.90
21255;DHT22;10785;50.674;17.954;2023-04-01T19:45:35;9.70;99.90
21255;DHT22;10785;50.674;17.954;2023-04-01T19:48:18;9.60;99.90
21255;DHT22;10785;50.674;17.954;2023-04-01T19:50:57;9.60;99.90
21255;DHT22;10785;50.674;17.954;2023-04-01T19:53:30;9.60;99.90
21255;DHT22;10785;50.674;17.954;2023-04-01T19:56:10;9.50;99.90
21255;DHT22;10785;50.674;17.954;2023-04-01T19:58:45;9.50;99.90
21255;DHT22;10785;50.674;17.954;2023-04-01T20:01:22;9.50;99.90
21255;DHT22;10785;50.674;17.954;2023-04-01T20:04:10;9.50;99.90
21255;DHT22;10785;50.674;17.954;2023-04-01T20:06:46;9.50;99.90
21255;DHT22;10785;50.674;17.954;2023-04-01T20:09:35;9.40;99.90
21255;DHT22;10785;50.674;17.954;2023-04-01T20:12:12;9.40;99.90
21255;DHT22;10785;50.674;17.954;2023-04-01T20:14:48;9.40;99.90
21255;DHT22;10785;50.674;17.954;2023-04-01T20:17:22;9.30;99.90